Terminal Aerodrome Forecast
Issued by NWS Wilmington, NC

Current Version | Previous Version | Graphics & Text | Print | Product List | Glossary Off
Versions: 1 2 3 4 5 6 7 8 9 10 11 12 13

000
FTUS42 KILM 282300
TAFMYR
TAF
KMYR 282321Z 2900/2924 VRB04KT P6SM SKC
     FM291600 16011KT P6SM FEW250
      AMD LTD TO CLD VIS AND WIND 2904/2911=

USA.gov is the U.S. government's official web portal to all federal, state and local government web resources and services.